Lookout, Wyoming
Current Conditions -  °F | °C
As of 7:53 AM on Monday 24 Nov 2014 (Local Time) from KLAR Reporting Station
Overcast Overcast  
Wind Chill:   Ceiling: 9500
Heat Index: 23°   Visibility: 10mi
Dew Point: 12°   Wind: 17mph
Humidity: 63%   Direction: 290°WNW
Pressure: 29.87"   Gusts: NA
Location:  41.5395°N, 105.861°W
Report Text: KLAR 241453Z AUTO 29015KT 10SM OVC095 M05/M11 A2987 RMK AO2 SLP155 T10501111 53017
Loading
Personal Weather Stations






























Interactive Weather Map New forecast layout! Learn more

10-Day Weather Forecast

Advertisements
Track Severe Weather on mobile